Time;durP1;ratioP1;P1;durP2;ratioP2;P2;SDS_P1;SDS_P2;PMS_P1;PMS_P2;Temp;Humidity;BMP_temperature;BMP_pressure;BME280_temperature;BME280_humidity;BME280_pressure;Samples;Min_cycle;Max_cycle;Signal;HPM_P1;HPM_P2
2021/12/06 00:01:39;;;;;;;6.38;3.85;;;1.80;99.90;;;;;;5090700;28;20426;-81
2021/12/06 00:04:20;;;;;;;5.72;3.85;;;1.80;99.90;;;;;;5049078;28;20465;-80
2021/12/06 00:06:51;;;;;;;26.05;14.82;;;1.80;99.90;;;;;;5072121;28;20166;-80
2021/12/06 00:09:22;;;;;;;25.48;14.02;;;1.90;99.90;;;;;;5072534;28;20539;-80
2021/12/06 00:11:51;;;;;;;24.83;16.00;;;1.80;99.90;;;;;;5072296;28;20041;-78
2021/12/06 00:14:17;;;;;;;16.55;11.73;;;1.90;99.90;;;;;;5072203;28;20051;-80
2021/12/06 00:16:43;;;;;;;6.60;4.20;;;1.90;99.90;;;;;;5072117;28;20047;-79
2021/12/06 00:19:08;;;;;;;2.55;1.90;;;1.80;99.90;;;;;;5072416;28;20028;-79
2021/12/06 00:21:34;;;;;;;0.52;0.50;;;1.80;99.90;;;;;;5072388;28;20032;-81
2021/12/06 00:24:01;;;;;;;0.93;0.68;;;1.70;99.90;;;;;;5072314;28;20419;-81
2021/12/06 00:26:27;;;;;;;0.73;0.43;;;1.80;99.90;;;;;;5072267;28;20043;-81
2021/12/06 00:28:57;;;;;;;0.93;0.75;;;1.90;99.90;;;;;;5072227;28;20044;-78
2021/12/06 00:31:25;;;;;;;0.52;0.40;;;1.80;99.90;;;;;;5057856;28;20416;-80
2021/12/06 00:33:59;;;;;;;1.15;0.45;;;1.80;99.90;;;;;;5075694;28;20029;-80
2021/12/06 00:36:28;;;;;;;0.88;0.60;;;1.90;99.90;;;;;;5057425;28;20123;-79
2021/12/06 00:38:55;;;;;;;0.88;0.47;;;1.90;99.90;;;;;;5075594;28;20115;-81
2021/12/06 00:41:21;;;;;;;1.65;0.55;;;1.90;99.90;;;;;;5075345;28;20041;-81
2021/12/06 00:43:47;;;;;;;0.60;0.60;;;1.90;99.90;;;;;;5075543;28;20537;-80
2021/12/06 00:46:13;;;;;;;0.80;0.50;;;1.90;99.90;;;;;;5075807;28;20480;-79
2021/12/06 00:48:39;;;;;;;1.02;0.50;;;2.00;99.90;;;;;;5093719;28;20035;-80
2021/12/06 00:51:05;;;;;;;1.02;0.80;;;2.00;99.90;;;;;;5095843;28;20402;-79
2021/12/06 00:53:31;;;;;;;0.55;0.50;;;1.90;99.90;;;;;;5095795;28;20036;-81
2021/12/06 00:55:58;;;;;;;0.47;0.47;;;2.00;99.90;;;;;;5095942;28;20028;-81
2021/12/06 00:58:24;;;;;;;0.55;0.55;;;2.00;99.90;;;;;;5095754;28;20032;-78
2021/12/06 01:00:53;;;;;;;0.60;0.50;;;2.10;99.90;;;;;;5095307;28;20686;-81
2021/12/06 01:03:21;;;;;;;1.20;1.00;;;2.10;99.90;;;;;;5095458;28;20540;-81
2021/12/06 01:05:48;;;;;;;1.80;1.17;;;2.00;99.90;;;;;;5095598;28;20035;-80
2021/12/06 01:08:14;;;;;;;1.42;1.10;;;2.00;99.90;;;;;;5095517;28;20082;-79
2021/12/06 01:10:40;;;;;;;1.63;1.25;;;2.00;99.90;;;;;;5095436;28;20044;-82
2021/12/06 01:13:07;;;;;;;1.33;1.10;;;2.00;99.90;;;;;;5095474;28;20450;-81
2021/12/06 01:15:35;;;;;;;1.60;1.27;;;2.00;99.90;;;;;;5095236;28;20479;-82
2021/12/06 01:18:02;;;;;;;1.45;1.23;;;2.00;99.90;;;;;;5095364;28;20032;-79
2021/12/06 01:20:31;;;;;;;1.75;1.40;;;2.00;99.90;;;;;;5077065;28;20458;-79
2021/12/06 01:23:03;;;;;;;1.67;1.33;;;1.90;99.90;;;;;;5095197;28;20036;-80
2021/12/06 01:41:35;;;;;;;1.60;1.30;;;1.70;99.90;;;;;;5093089;28;20206;-79
2021/12/06 01:44:17;;;;;;;1.77;1.20;;;1.80;99.90;;;;;;5094792;28;20058;-81
2021/12/06 01:47:11;;;;;;;3.10;1.75;;;1.90;99.90;;;;;;5095011;28;20445;-79
2021/12/06 01:49:41;;;;;;;3.05;2.00;;;1.90;99.90;;;;;;5094818;28;20511;-79
2021/12/06 01:52:15;;;;;;;2.95;2.20;;;2.00;99.90;;;;;;5094636;28;20040;-80
2021/12/06 01:54:41;;;;;;;3.80;1.67;;;2.00;99.90;;;;;;5094843;28;20044;-80
2021/12/06 01:57:08;;;;;;;3.72;1.88;;;2.00;99.90;;;;;;5094341;28;20039;-79
2021/12/06 01:59:34;;;;;;;2.88;2.17;;;2.00;99.90;;;;;;5094615;28;20085;-80
2021/12/06 02:02:00;;;;;;;2.65;1.95;;;2.00;99.90;;;;;;5094505;28;20111;-80
2021/12/06 02:04:28;;;;;;;1.98;1.48;;;2.00;99.90;;;;;;5094096;28;20090;-79
2021/12/06 02:06:55;;;;;;;1.55;1.00;;;2.00;99.90;;;;;;5094227;28;20491;-81
2021/12/06 02:09:25;;;;;;;1.25;1.10;;;2.00;99.90;;;;;;5093897;28;20097;-81
2021/12/06 02:11:52;;;;;;;3.13;1.38;;;2.00;99.90;;;;;;5094351;28;20130;-80
2021/12/06 02:14:30;;;;;;;1.52;1.38;;;2.00;99.90;;;;;;5094180;28;20469;-81
2021/12/06 02:19:32;;;;;;;1.75;1.23;;;2.00;99.90;;;;;;5075988;28;20045;-79
2021/12/06 02:22:00;;;;;;;1.40;1.20;;;2.00;99.90;;;;;;5071579;28;20628;-80
2021/12/06 02:24:27;;;;;;;2.67;1.50;;;2.00;99.90;;;;;;5073428;28;20503;-81
2021/12/06 02:26:53;;;;;;;2.15;1.58;;;2.00;99.90;;;;;;5073385;28;20379;-80
2021/12/06 02:29:20;;;;;;;1.77;1.20;;;1.90;99.90;;;;;;5073415;28;20127;-81
2021/12/06 02:31:49;;;;;;;1.83;1.40;;;2.00;99.90;;;;;;5073530;28;20066;-81
2021/12/06 02:34:15;;;;;;;1.48;1.30;;;1.90;99.90;;;;;;5073555;28;20103;-80
2021/12/06 02:36:42;;;;;;;1.20;1.10;;;1.90;99.90;;;;;;5073585;28;20449;-80
2021/12/06 02:39:09;;;;;;;2.88;1.25;;;1.90;99.90;;;;;;5073303;28;20078;-81
2021/12/06 02:41:36;;;;;;;1.40;1.10;;;1.80;99.90;;;;;;5073279;28;20122;-80
2021/12/06 02:44:03;;;;;;;2.22;1.33;;;1.80;99.90;;;;;;5073088;28;20059;-82
2021/12/06 02:46:29;;;;;;;1.35;1.25;;;1.80;99.90;;;;;;5073393;28;20040;-84
2021/12/06 02:48:55;;;;;;;2.83;1.33;;;1.90;99.90;;;;;;5073362;28;20043;-81
2021/12/06 02:51:21;;;;;;;1.33;1.20;;;1.80;99.90;;;;;;5090116;28;20044;-81
2021/12/06 02:53:48;;;;;;;1.35;1.20;;;1.80;99.90;;;;;;5074585;28;20086;-81
2021/12/06 02:56:30;;;;;;;1.15;1.05;;;1.80;99.90;;;;;;5075032;28;20043;-81
2021/12/06 02:58:59;;;;;;;2.03;1.35;;;1.80;99.90;;;;;;5075186;28;20036;-79
2021/12/06 03:01:34;;;;;;;2.70;1.58;;;1.80;99.90;;;;;;5092564;28;20028;-80
2021/12/06 03:04:02;;;;;;;2.00;1.52;;;1.80;99.90;;;;;;5093323;28;20131;-82
2021/12/06 03:06:29;;;;;;;1.83;1.48;;;1.80;99.90;;;;;;5093403;28;20581;-81
2021/12/06 03:09:05;;;;;;;1.65;1.55;;;1.80;99.90;;;;;;5100964;28;20044;-81
2021/12/06 03:11:49;;;;;;;1.95;1.20;;;1.80;99.90;;;;;;5107803;28;20119;-82
2021/12/06 03:14:37;;;;;;;1.33;1.23;;;1.80;99.90;;;;;;5081321;28;20044;-81
2021/12/06 03:17:06;;;;;;;1.95;1.52;;;1.90;99.90;;;;;;5078842;28;20046;-82
2021/12/06 03:19:32;;;;;;;2.55;1.58;;;1.80;99.90;;;;;;5093071;28;20048;-83
2021/12/06 03:21:58;;;;;;;1.52;1.42;;;1.80;99.90;;;;;;5089924;28;20043;-82
2021/12/06 03:24:23;;;;;;;1.65;1.55;;;1.80;99.90;;;;;;5072884;28;20044;-82
2021/12/06 03:26:50;;;;;;;1.83;1.50;;;1.70;99.90;;;;;;5054879;28;20032;-83
2021/12/06 03:29:17;;;;;;;2.45;1.83;;;1.60;99.90;;;;;;5072827;28;20036;-81
2021/12/06 03:31:43;;;;;;;1.90;1.70;;;1.60;99.90;;;;;;5072860;28;20043;-82
2021/12/06 03:34:09;;;;;;;1.92;1.50;;;1.60;99.90;;;;;;5072571;28;20036;-82
2021/12/06 03:36:37;;;;;;;1.88;1.60;;;1.40;99.90;;;;;;5072998;28;20032;-81
2021/12/06 03:39:07;;;;;;;2.30;1.65;;;1.40;99.90;;;;;;5072826;28;20115;-82
2021/12/06 03:41:33;;;;;;;1.57;1.47;;;1.30;99.90;;;;;;5072929;28;20124;-82
2021/12/06 03:43:59;;;;;;;1.63;1.50;;;1.40;99.90;;;;;;5072766;28;20381;-82
2021/12/06 03:46:28;;;;;;;1.50;1.40;;;1.40;99.90;;;;;;5072517;28;20037;-81
2021/12/06 03:48:54;;;;;;;1.95;1.77;;;1.40;99.90;;;;;;5072831;28;20029;-81
2021/12/06 03:51:20;;;;;;;1.75;1.63;;;1.40;99.90;;;;;;5072805;28;20024;-81
2021/12/06 03:53:46;;;;;;;1.45;1.35;;;1.40;99.90;;;;;;5072563;28;20373;-82
2021/12/06 03:56:13;;;;;;;1.50;1.40;;;1.30;99.90;;;;;;5072663;28;20032;-83
2021/12/06 03:58:40;;;;;;;2.22;1.60;;;1.30;99.90;;;;;;5072701;28;20058;-82
2021/12/06 04:01:06;;;;;;;1.65;1.55;;;1.30;99.90;;;;;;5072505;28;20090;-81
2021/12/06 04:03:35;;;;;;;2.40;1.85;;;1.20;99.90;;;;;;5072618;28;20123;-81
2021/12/06 04:06:02;;;;;;;2.30;1.80;;;1.20;99.90;;;;;;5075800;28;20089;-82
2021/12/06 04:08:28;;;;;;;3.50;1.80;;;1.20;99.90;;;;;;5076486;28;20044;-81
2021/12/06 04:10:55;;;;;;;2.05;1.80;;;1.20;99.90;;;;;;5076442;28;20408;-81
2021/12/06 04:13:22;;;;;;;2.80;1.67;;;1.20;99.90;;;;;;5076490;28;20075;-81
2021/12/06 04:15:48;;;;;;;2.35;1.85;;;1.20;99.90;;;;;;5076477;28;20070;-81
2021/12/06 04:18:14;;;;;;;1.65;1.55;;;1.30;99.90;;;;;;5058257;28;20078;-81
2021/12/06 04:20:40;;;;;;;1.73;1.60;;;1.30;99.90;;;;;;5076206;28;20032;-82
2021/12/06 04:23:08;;;;;;;2.08;1.85;;;1.50;99.90;;;;;;5076096;28;20036;-81
2021/12/06 04:25:35;;;;;;;2.60;1.85;;;1.60;99.90;;;;;;5075838;28;20048;-81
2021/12/06 04:28:05;;;;;;;2.08;1.75;;;1.50;99.90;;;;;;5075781;28;20028;-81
2021/12/06 04:30:33;;;;;;;2.38;1.92;;;1.60;99.90;;;;;;5076174;28;20040;-81
2021/12/06 04:32:59;;;;;;;1.85;1.67;;;1.40;99.90;;;;;;5076018;28;20544;-81
2021/12/06 04:35:26;;;;;;;2.55;2.03;;;1.40;99.90;;;;;;5058001;28;20148;-81
2021/12/06 04:37:52;;;;;;;2.55;1.92;;;1.40;99.90;;;;;;5075679;28;20040;-81
2021/12/06 04:40:19;;;;;;;3.03;2.13;;;1.50;99.90;;;;;;5075799;28;20446;-81
2021/12/06 04:42:44;;;;;;;2.20;1.90;;;1.50;99.90;;;;;;5090244;28;20039;-81
2021/12/06 04:45:11;;;;;;;13.48;2.33;;;1.50;99.90;;;;;;5079596;28;20052;-81
2021/12/06 04:47:38;;;;;;;56.42;5.95;;;1.50;99.90;;;;;;5096202;28;20452;-81
2021/12/06 04:50:07;;;;;;;164.13;10.20;;;1.40;99.90;;;;;;5088175;28;20082;-81
2021/12/06 04:52:33;;;;;;;9.45;3.20;;;1.40;99.90;;;;;;5084358;28;20035;-81
2021/12/06 04:55:00;;;;;;;56.97;6.85;;;1.40;99.90;;;;;;5095597;28;20043;-81
2021/12/06 04:57:36;;;;;;;5.40;4.30;;;1.40;99.90;;;;;;5077663;28;20039;-81
2021/12/06 05:00:12;;;;;;;5.35;4.35;;;1.40;99.90;;;;;;5095738;28;20040;-81
2021/12/06 05:02:39;;;;;;;3.92;3.17;;;1.40;99.90;;;;;;5095788;28;20035;-81
2021/12/06 05:05:12;;;;;;;3.40;2.92;;;1.50;99.90;;;;;;5095529;28;20043;-81
2021/12/06 05:07:43;;;;;;;3.22;2.45;;;1.50;99.90;;;;;;5095258;28;20092;-81
2021/12/06 05:10:11;;;;;;;8.02;6.88;;;1.50;99.90;;;;;;5095527;28;20028;-81
2021/12/06 05:12:37;;;;;;;9.18;7.53;;;1.50;99.90;;;;;;5095583;28;20401;-80
2021/12/06 05:15:06;;;;;;;6.65;5.47;;;1.40;99.90;;;;;;5095237;28;20094;-81
2021/12/06 05:17:32;;;;;;;12.70;7.68;;;1.40;99.90;;;;;;5094095;28;20032;-81
2021/12/06 05:19:58;;;;;;;7.97;6.40;;;1.40;99.90;;;;;;5095531;28;20085;-81
2021/12/06 05:22:25;;;;;;;4.57;3.83;;;1.40;99.90;;;;;;5097937;28;20032;-80
2021/12/06 05:24:52;;;;;;;5.00;4.20;;;1.50;99.90;;;;;;5083261;28;20415;-80
2021/12/06 05:27:27;;;;;;;5.05;3.90;;;1.50;99.90;;;;;;5095128;28;20044;-80
2021/12/06 05:29:57;;;;;;;3.75;3.13;;;1.40;99.90;;;;;;5076674;28;20043;-81
2021/12/06 05:32:25;;;;;;;4.00;3.60;;;1.40;99.90;;;;;;5094861;28;20059;-80
2021/12/06 05:34:57;;;;;;;5.60;4.25;;;1.50;99.90;;;;;;5095099;28;20036;-80
2021/12/06 05:37:23;;;;;;;8.48;6.55;;;1.40;99.90;;;;;;5102149;28;20031;-80
2021/12/06 05:39:49;;;;;;;7.07;5.53;;;1.40;99.90;;;;;;5094861;28;20070;-81
2021/12/06 05:42:16;;;;;;;7.28;6.13;;;1.30;99.90;;;;;;5076596;28;20032;-81
2021/12/06 05:44:42;;;;;;;8.18;6.75;;;1.40;99.90;;;;;;5094702;28;20070;-80
2021/12/06 05:47:09;;;;;;;7.28;2.78;;;1.40;99.90;;;;;;5076582;28;20507;-79
2021/12/06 05:49:35;;;;;;;8.35;6.22;;;1.50;99.90;;;;;;5094833;28;20080;-81
2021/12/06 05:52:02;;;;;;;6.10;5.38;;;1.50;99.90;;;;;;5094781;28;20226;-80
2021/12/06 05:54:28;;;;;;;4.47;4.07;;;1.40;99.90;;;;;;5093992;28;20035;-80
2021/12/06 05:56:55;;;;;;;5.55;4.93;;;1.50;99.90;;;;;;5104678;28;20044;-79
2021/12/06 05:59:21;;;;;;;13.50;5.75;;;1.40;99.90;;;;;;5113089;28;20044;-78
2021/12/06 06:01:49;;;;;;;7.25;5.93;;;1.60;99.90;;;;;;5092883;28;20117;-81
2021/12/06 06:04:16;;;;;;;7.32;5.88;;;1.60;99.90;;;;;;5075584;28;20071;-79
2021/12/06 06:06:42;;;;;;;7.55;6.45;;;1.40;99.90;;;;;;5073424;28;20036;-81
2021/12/06 06:09:08;;;;;;;4.63;4.13;;;1.30;99.90;;;;;;5057794;28;20066;-81
2021/12/06 06:11:36;;;;;;;3.30;2.90;;;1.30;99.90;;;;;;5073720;28;20381;-79
2021/12/06 06:14:10;;;;;;;5.13;4.25;;;1.20;99.90;;;;;;5073170;28;20078;-82
2021/12/06 06:16:47;;;;;;;4.07;3.65;;;1.30;99.90;;;;;;5055401;28;20033;-79
2021/12/06 06:19:15;;;;;;;3.10;2.20;;;1.30;99.90;;;;;;5073975;28;20047;-80
2021/12/06 06:21:41;;;;;;;2.03;1.83;;;1.10;99.90;;;;;;5087066;28;20521;-80
2021/12/06 06:24:07;;;;;;;2.03;1.83;;;1.10;99.90;;;;;;5076016;28;20040;-81
2021/12/06 06:26:34;;;;;;;3.05;2.30;;;1.10;99.90;;;;;;5072181;28;20071;-82
2021/12/06 06:29:00;;;;;;;8.82;4.53;;;1.10;99.90;;;;;;5073394;28;20032;-81
2021/12/06 06:31:26;;;;;;;25.05;11.07;;;1.10;99.90;;;;;;5072614;28;20117;-79
2021/12/06 06:33:52;;;;;;;30.65;12.77;;;1.10;99.90;;;;;;5074868;28;20079;-81
2021/12/06 06:36:17;;;;;;;18.02;9.02;;;1.00;99.90;;;;;;5056322;28;20456;-81
2021/12/06 06:38:43;;;;;;;9.27;4.82;;;1.00;99.90;;;;;;5073809;28;20109;-81
2021/12/06 06:41:09;;;;;;;8.68;6.25;;;1.10;99.90;;;;;;5073662;28;20036;-81
2021/12/06 06:43:44;;;;;;;8.70;5.78;;;1.00;99.90;;;;;;5073468;28;20499;-81
2021/12/06 06:46:10;;;;;;;6.70;5.07;;;1.00;99.90;;;;;;5081293;28;20047;-81
2021/12/06 06:48:36;;;;;;;4.63;3.92;;;1.10;99.90;;;;;;5093721;28;20035;-83
2021/12/06 06:51:02;;;;;;;4.75;4.07;;;1.20;99.90;;;;;;5093730;28;20036;-83
2021/12/06 06:53:28;;;;;;;51.97;32.65;;;1.30;99.90;;;;;;5093361;28;20508;-81
2021/12/06 06:55:55;;;;;;;13.75;9.55;;;1.30;99.90;;;;;;5093613;28;20024;-83
2021/12/06 06:58:21;;;;;;;90.63;16.05;;;1.30;99.90;;;;;;5093231;28;20514;-82
2021/12/06 07:00:47;;;;;;;220.30;26.42;;;1.30;99.90;;;;;;5086890;28;20032;-83
2021/12/06 07:03:13;;;;;;;200.55;23.33;;;1.30;99.90;;;;;;5091649;28;20491;-86
2021/12/06 07:05:40;;;;;;;26.33;13.85;;;1.30;99.90;;;;;;5092692;28;20040;-81
2021/12/06 07:08:06;;;;;;;8.10;5.80;;;1.30;99.90;;;;;;5092967;28;20048;-81
2021/12/06 07:10:32;;;;;;;14.82;10.55;;;1.40;99.90;;;;;;5093201;28;20039;-82
2021/12/06 07:13:03;;;;;;;19.98;14.80;;;1.30;99.90;;;;;;5092972;28;20092;-80
2021/12/06 07:15:32;;;;;;;19.63;13.13;;;1.20;99.90;;;;;;5092847;28;20032;-81
2021/12/06 07:18:00;;;;;;;17.50;13.80;;;1.50;99.90;;;;;;5093164;28;20122;-81
2021/12/06 07:20:26;;;;;;;23.05;17.15;;;1.60;99.90;;;;;;5092476;28;20339;-81
2021/12/06 07:22:54;;;;;;;21.50;14.13;;;1.40;99.90;;;;;;5091422;28;20388;-81
2021/12/06 07:25:21;;;;;;;21.88;11.10;;;1.20;99.90;;;;;;5093239;28;20048;-81
2021/12/06 07:27:49;;;;;;;24.15;16.88;;;1.20;99.90;;;;;;5075002;28;20032;-81
2021/12/06 07:30:17;;;;;;;26.35;19.42;;;1.30;99.90;;;;;;5093070;28;20074;-81
2021/12/06 07:32:43;;;;;;;125.95;19.40;;;1.20;99.90;;;;;;5074853;28;20035;-81
2021/12/06 07:35:11;;;;;;;20.98;14.57;;;1.30;99.90;;;;;;5093236;28;20118;-81
2021/12/06 07:37:38;;;;;;;13.00;9.57;;;1.20;99.90;;;;;;5093154;28;20560;-81
2021/12/06 07:40:07;;;;;;;10.15;7.55;;;1.20;99.90;;;;;;5092047;28;20028;-81
2021/12/06 07:42:33;;;;;;;6.57;5.50;;;1.10;99.90;;;;;;5092665;28;20043;-81
2021/12/06 07:45:00;;;;;;;7.93;6.57;;;1.20;99.90;;;;;;5093071;28;20044;-81
2021/12/06 07:47:26;;;;;;;8.45;7.00;;;1.30;99.90;;;;;;5093122;28;20040;-81
2021/12/06 07:49:52;;;;;;;13.43;9.48;;;1.40;99.90;;;;;;5093009;28;20036;-81
2021/12/06 07:52:17;;;;;;;11.60;8.00;;;1.50;99.90;;;;;;5092635;28;20035;-81
2021/12/06 07:54:43;;;;;;;9.05;6.75;;;1.50;99.90;;;;;;5092955;28;20035;-81
2021/12/06 07:57:09;;;;;;;8.50;7.00;;;1.40;99.90;;;;;;5092865;28;20032;-81
2021/12/06 07:59:37;;;;;;;8.13;6.53;;;1.30;99.90;;;;;;5092924;28;20494;-81
2021/12/06 08:02:06;;;;;;;6.70;5.25;;;1.30;99.90;;;;;;5093147;28;20028;-81
2021/12/06 08:04:32;;;;;;;8.10;6.15;;;1.20;99.90;;;;;;5074586;28;20051;-81
2021/12/06 08:06:58;;;;;;;8.18;5.82;;;1.20;99.90;;;;;;5092746;28;20034;-80
2021/12/06 08:09:24;;;;;;;7.65;6.10;;;1.10;99.90;;;;;;5074678;28;20404;-80
2021/12/06 08:11:50;;;;;;;8.80;6.55;;;1.10;99.90;;;;;;5092529;28;20471;-80
2021/12/06 08:14:16;;;;;;;8.10;5.70;;;1.20;99.90;;;;;;5092792;28;20046;-81
2021/12/06 08:16:43;;;;;;;6.28;4.88;;;1.20;99.90;;;;;;5074791;28;20044;-80
2021/12/06 08:19:13;;;;;;;3.25;2.90;;;1.30;99.90;;;;;;5074716;28;20046;-80
2021/12/06 08:21:39;;;;;;;2.40;1.98;;;1.20;99.90;;;;;;5092668;28;20040;-80
2021/12/06 08:24:07;;;;;;;2.10;1.50;;;1.30;99.90;;;;;;5092386;28;20059;-80
2021/12/06 08:26:37;;;;;;;1.58;1.23;;;1.40;99.90;;;;;;5092720;28;20039;-81
2021/12/06 08:29:06;;;;;;;1.30;0.90;;;1.50;99.90;;;;;;5092480;28;20100;-80
2021/12/06 08:31:34;;;;;;;1.52;1.33;;;1.50;99.90;;;;;;5092624;28;20039;-80
2021/12/06 08:34:00;;;;;;;1.90;1.40;;;1.60;99.90;;;;;;5092476;28;20044;-80
2021/12/06 08:36:26;;;;;;;2.72;2.25;;;1.60;99.90;;;;;;5092556;28;20079;-80
2021/12/06 08:38:53;;;;;;;3.25;2.85;;;1.70;99.90;;;;;;5092532;28;20048;-80
2021/12/06 08:41:25;;;;;;;4.68;3.97;;;1.60;99.90;;;;;;5092722;28;20036;-80
2021/12/06 08:43:53;;;;;;;4.82;3.63;;;1.50;99.90;;;;;;5092503;28;20043;-80
2021/12/06 08:46:29;;;;;;;3.85;3.00;;;1.50;99.90;;;;;;5092583;28;20036;-80
2021/12/06 08:48:56;;;;;;;8.98;6.30;;;1.60;99.90;;;;;;5092494;28;20044;-80
2021/12/06 08:51:33;;;;;;;7.82;5.20;;;1.50;99.90;;;;;;5092719;28;20039;-80
2021/12/06 08:54:02;;;;;;;5.20;3.65;;;1.50;99.90;;;;;;5096048;28;20077;-80
2021/12/06 08:56:28;;;;;;;4.80;3.00;;;1.50;99.90;;;;;;5095798;28;20526;-80
2021/12/06 08:58:57;;;;;;;7.47;4.55;;;1.60;99.90;;;;;;5095434;28;20040;-80
2021/12/06 09:01:23;;;;;;;4.10;3.35;;;1.60;99.90;;;;;;5095814;28;20081;-80
2021/12/06 09:03:49;;;;;;;6.95;4.38;;;1.60;99.90;;;;;;5095682;28;20046;-80
2021/12/06 09:06:15;;;;;;;5.00;3.42;;;1.60;99.90;;;;;;5095535;28;20123;-79
2021/12/06 09:08:41;;;;;;;4.00;3.20;;;1.60;99.90;;;;;;5095464;28;20403;-80
2021/12/06 09:11:09;;;;;;;7.05;4.65;;;1.80;99.90;;;;;;5095523;28;20036;-80
2021/12/06 09:13:36;;;;;;;5.18;4.30;;;1.80;99.90;;;;;;5095465;28;20072;-80
2021/12/06 09:16:04;;;;;;;4.28;3.60;;;1.80;99.90;;;;;;5095541;28;20047;-80
2021/12/06 09:18:34;;;;;;;4.18;3.10;;;1.80;99.90;;;;;;5095447;28;20550;-79
2021/12/06 09:21:09;;;;;;;5.18;3.70;;;1.90;99.90;;;;;;5095535;28;20403;-79
2021/12/06 09:23:35;;;;;;;5.88;4.68;;;2.00;99.90;;;;;;5095371;28;20048;-79
2021/12/06 09:26:02;;;;;;;8.63;5.45;;;2.00;99.90;;;;;;5095200;28;20032;-80
2021/12/06 09:28:28;;;;;;;5.60;3.90;;;2.00;99.90;;;;;;5095203;28;20070;-80
2021/12/06 09:30:54;;;;;;;4.93;2.50;;;2.10;99.90;;;;;;5095371;28;20562;-80
2021/12/06 09:33:21;;;;;;;14.77;2.92;;;2.10;99.90;;;;;;5095361;28;20376;-79
2021/12/06 09:35:48;;;;;;;9.05;4.25;;;2.10;99.90;;;;;;5084384;28;20507;-79
2021/12/06 09:38:17;;;;;;;4.47;2.30;;;2.10;99.90;;;;;;5094219;28;20173;-79
2021/12/06 09:40:48;;;;;;;7.32;3.08;;;2.10;99.90;;;;;;5094682;28;20044;-80
2021/12/06 09:43:15;;;;;;;13.05;3.45;;;2.00;99.90;;;;;;5075936;28;20109;-80
2021/12/06 09:45:43;;;;;;;13.13;3.22;;;2.00;99.90;;;;;;5076819;28;20491;-80
2021/12/06 09:48:09;;;;;;;10.20;2.60;;;2.00;99.90;;;;;;5094915;28;20040;-79
2021/12/06 09:50:45;;;;;;;11.40;2.80;;;2.00;99.90;;;;;;5095027;28;20472;-79
2021/12/06 09:53:17;;;;;;;15.55;2.50;;;2.10;99.90;;;;;;5094816;28;20518;-79
2021/12/06 09:55:45;;;;;;;9.10;2.50;;;2.00;99.90;;;;;;5094376;28;20036;-79
2021/12/06 09:58:11;;;;;;;11.55;4.25;;;2.10;99.90;;;;;;5094443;28;20036;-80
2021/12/06 10:00:42;;;;;;;14.70;5.03;;;2.10;99.90;;;;;;5076369;28;20449;-80
2021/12/06 10:03:10;;;;;;;17.45;4.22;;;2.10;99.90;;;;;;5093942;28;20048;-80
2021/12/06 10:05:36;;;;;;;10.80;3.70;;;2.10;99.90;;;;;;5094348;28;20075;-80
2021/12/06 10:08:03;;;;;;;7.75;3.47;;;2.20;99.90;;;;;;5094421;28;20036;-80
2021/12/06 10:10:30;;;;;;;6.32;3.88;;;2.20;99.90;;;;;;5094412;28;20054;-79
2021/12/06 10:12:57;;;;;;;8.57;3.80;;;2.20;99.90;;;;;;5094569;28;20028;-80
2021/12/06 10:15:27;;;;;;;4.68;3.00;;;2.20;99.90;;;;;;5094242;28;20032;-80
2021/12/06 10:17:55;;;;;;;5.07;3.00;;;2.10;99.90;;;;;;5094455;28;20039;-80
2021/12/06 10:20:24;;;;;;;4.40;3.40;;;2.10;99.90;;;;;;5093985;28;20487;-80
2021/12/06 10:22:51;;;;;;;4.00;2.95;;;2.10;99.90;;;;;;5094198;28;20028;-80
2021/12/06 10:25:17;;;;;;;4.68;3.00;;;2.20;99.90;;;;;;5090599;28;20440;-80
2021/12/06 10:27:55;;;;;;;4.45;3.47;;;2.20;99.90;;;;;;5073650;28;20032;-80
2021/12/06 10:30:23;;;;;;;5.70;4.95;;;2.20;99.90;;;;;;5071938;28;20048;-80
2021/12/06 10:32:49;;;;;;;8.38;3.75;;;2.10;99.90;;;;;;5055767;28;20032;-80
2021/12/06 10:35:16;;;;;;;3.05;2.60;;;2.20;99.90;;;;;;5073998;28;20039;-80
2021/12/06 10:37:53;;;;;;;4.00;3.33;;;2.20;99.90;;;;;;5073858;28;20028;-80
2021/12/06 10:40:27;;;;;;;3.38;2.83;;;2.10;99.90;;;;;;5073770;28;20032;-81
2021/12/06 10:42:55;;;;;;;7.75;4.68;;;2.20;99.90;;;;;;5073680;28;20503;-80
2021/12/06 10:45:25;;;;;;;3.80;3.30;;;2.20;99.90;;;;;;5073591;28;20098;-80
2021/12/06 10:48:12;;;;;;;5.40;4.30;;;2.20;99.90;;;;;;5077623;28;20028;-80
2021/12/06 10:50:42;;;;;;;10.57;5.80;;;2.30;99.90;;;;;;5093749;28;20047;-80
2021/12/06 10:53:11;;;;;;;17.08;6.40;;;2.30;99.90;;;;;;5093664;28;20031;-81
2021/12/06 10:55:38;;;;;;;9.75;4.50;;;2.20;99.90;;;;;;5093762;28;20040;-80
2021/12/06 10:58:07;;;;;;;5.63;3.28;;;2.30;99.90;;;;;;5075607;28;20384;-80
2021/12/06 11:00:41;;;;;;;5.30;3.10;;;2.30;99.90;;;;;;5093717;28;20534;-81
2021/12/06 11:03:34;;;;;;;5.50;3.72;;;2.30;99.90;;;;;;5093690;28;20044;-81
2021/12/06 11:06:09;;;;;;;7.88;6.30;;;2.40;99.90;;;;;;5093105;28;20040;-81
2021/12/06 11:08:36;;;;;;;7.85;4.85;;;2.40;99.90;;;;;;5093483;28;20074;-81
2021/12/06 11:11:07;;;;;;;7.57;6.07;;;2.40;99.90;;;;;;5075219;28;20134;-81
2021/12/06 11:13:35;;;;;;;8.95;7.07;;;2.40;99.90;;;;;;5093140;28;20032;-81
2021/12/06 11:16:01;;;;;;;6.15;4.47;;;2.40;99.90;;;;;;5093022;28;20028;-81
2021/12/06 11:18:33;;;;;;;5.53;4.65;;;2.40;99.90;;;;;;5093285;28;20506;-81
2021/12/06 11:20:59;;;;;;;6.50;5.47;;;2.40;99.90;;;;;;5075296;28;20064;-81
2021/12/06 11:23:27;;;;;;;8.13;6.43;;;2.40;99.90;;;;;;5093443;28;20044;-81
2021/12/06 11:25:59;;;;;;;8.75;7.57;;;2.50;99.90;;;;;;5075336;28;20063;-81
2021/12/06 11:28:32;;;;;;;8.90;5.20;;;2.40;99.90;;;;;;5093434;28;20024;-80
2021/12/06 11:31:05;;;;;;;6.20;4.47;;;2.30;99.90;;;;;;5093241;28;20072;-81
2021/12/06 11:33:35;;;;;;;8.52;5.80;;;2.20;99.90;;;;;;5093335;28;20032;-81
2021/12/06 11:36:02;;;;;;;5.90;4.40;;;2.20;99.90;;;;;;5093155;28;20067;-81
2021/12/06 11:38:32;;;;;;;6.38;5.07;;;2.30;99.90;;;;;;5092794;28;20091;-82
2021/12/06 11:40:59;;;;;;;4.53;4.07;;;2.40;99.90;;;;;;5093134;28;20028;-82
2021/12/06 11:43:26;;;;;;;13.18;11.88;;;2.40;99.90;;;;;;5092991;28;20044;-82
2021/12/06 11:45:57;;;;;;;11.27;10.25;;;2.40;99.90;;;;;;5093005;28;20074;-82
2021/12/06 11:48:32;;;;;;;7.55;3.92;;;2.40;99.90;;;;;;5092978;28;20123;-82
2021/12/06 11:51:03;;;;;;;5.32;4.15;;;2.50;99.90;;;;;;5093102;28;20051;-82
2021/12/06 11:53:44;;;;;;;27.55;23.25;;;2.50;99.90;;;;;;5093121;28;20514;-81
2021/12/06 11:56:18;;;;;;;7.05;5.45;;;2.60;99.90;;;;;;5092909;28;20127;-81
2021/12/06 11:58:53;;;;;;;4.65;3.83;;;2.70;99.90;;;;;;5092955;28;20401;-81
2021/12/06 12:01:25;;;;;;;5.80;3.60;;;2.60;99.90;;;;;;5092827;28;20040;-80
2021/12/06 12:03:54;;;;;;;5.20;3.53;;;;;;;;;;5092693;28;20067;-80
2021/12/06 12:06:39;;;;;;;8.05;5.50;;;2.60;99.90;;;;;;5092738;28;20500;-80
2021/12/06 12:09:08;;;;;;;36.22;24.88;;;2.70;99.90;;;;;;5092827;28;20032;-81
2021/12/06 12:12:13;;;;;;;25.95;19.98;;;2.80;99.90;;;;;;5091444;28;20415;-79
2021/12/06 12:14:42;;;;;;;29.67;14.82;;;2.90;99.90;;;;;;5092751;28;20079;-80
2021/12/06 12:17:12;;;;;;;39.22;20.77;;;2.80;99.90;;;;;;5092726;28;20100;-80
2021/12/06 12:19:40;;;;;;;4.85;3.75;;;2.90;99.90;;;;;;5092716;28;20036;-80
2021/12/06 12:22:07;;;;;;;6.65;4.38;;;2.80;99.90;;;;;;5092724;28;20090;-79
2021/12/06 12:24:34;;;;;;;11.73;8.30;;;2.70;99.90;;;;;;5092416;28;20051;-80
2021/12/06 12:27:15;;;;;;;6.07;4.55;;;2.70;99.90;;;;;;5096096;28;20058;-79
2021/12/06 12:29:41;;;;;;;6.88;5.38;;;2.70;99.90;;;;;;5096596;28;20036;-79
2021/12/06 12:32:07;;;;;;;6.20;4.30;;;2.90;99.90;;;;;;5096519;28;20063;-80
2021/12/06 12:34:38;;;;;;;4.72;3.92;;;2.70;99.90;;;;;;5096538;28;20071;-80
2021/12/06 12:37:06;;;;;;;9.65;6.15;;;2.80;99.90;;;;;;5096211;28;20039;-80
2021/12/06 12:39:33;;;;;;;9.02;5.53;;;2.90;99.90;;;;;;5096392;28;20044;-80
2021/12/06 12:42:02;;;;;;;8.27;4.38;;;2.80;99.90;;;;;;5096162;28;20137;-80
2021/12/06 12:44:51;;;;;;;2.50;2.30;;;2.80;99.90;;;;;;5095681;28;20043;-80
2021/12/06 12:47:24;;;;;;;13.32;10.18;;;3.00;99.90;;;;;;5096200;28;20044;-79
2021/12/06 12:50:10;;;;;;;4.18;3.40;;;3.10;99.90;;;;;;5096146;28;20040;-79
2021/12/06 12:52:44;;;;;;;7.07;5.15;;;3.10;99.90;;;;;;5077952;28;20040;-80
2021/12/06 12:55:32;;;;;;;5.07;3.72;;;3.10;99.90;;;;;;5096084;28;20040;-80
2021/12/06 12:58:16;;;;;;;8.48;6.20;;;3.10;99.90;;;;;;5077841;28;20039;-80
2021/12/06 13:01:07;;;;;;;5.22;4.72;;;3.20;99.90;;;;;;5095760;28;20036;-80
2021/12/06 13:03:58;;;;;;;3.08;2.42;;;3.20;99.90;;;;;;5095414;28;20044;-80
2021/12/06 13:06:31;;;;;;;2.85;2.55;;;3.20;99.90;;;;;;5095971;28;20093;-80
2021/12/06 13:09:03;;;;;;;5.43;4.03;;;3.30;99.90;;;;;;5095792;28;20039;-80
2021/12/06 13:11:53;;;;;;;7.53;4.00;;;3.30;99.90;;;;;;5077483;28;20376;-80
2021/12/06 13:14:35;;;;;;;5.75;4.15;;;3.10;99.90;;;;;;5095750;28;20036;-80
2021/12/06 13:17:05;;;;;;;7.32;5.10;;;3.10;99.90;;;;;;5077503;28;20046;-79
2021/12/06 13:19:44;;;;;;;3.55;3.25;;;3.10;99.90;;;;;;5095504;28;20043;-80
2021/12/06 13:22:16;;;;;;;4.15;3.67;;;3.10;99.90;;;;;;5077420;28;20038;-80
2021/12/06 13:24:51;;;;;;;5.45;4.32;;;3.30;99.90;;;;;;5095316;28;20503;-79